Time;durP1;ratioP1;P1;durP2;ratioP2;P2;SDS_P1;SDS_P2;PMS_P1;PMS_P2;Temp;Humidity;BMP_temperature;BMP_pressure;BME280_temperature;BME280_humidity;BME280_pressure;Samples;Min_cycle;Max_cycle;Signal;HPM_P1;HPM_P2
2022/12/01 00:01:06;;;;;;;25.83;14.05;;;;;;;8.00;100.00;101824.75;4910316;29;20562;-45
2022/12/01 00:03:33;;;;;;;26.88;14.23;;;;;;;7.95;100.00;101830.34;4911021;29;20054;-44
2022/12/01 00:06:15;;;;;;;24.88;14.00;;;;;;;7.90;100.00;101828.50;4911002;29;20055;-45
2022/12/01 00:11:28;;;;;;;26.15;13.45;;;;;;;7.88;100.00;101838.22;4910539;29;20483;-48
2022/12/01 00:13:55;;;;;;;27.13;12.93;;;;;;;7.89;100.00;101843.41;4910714;29;20052;-45
2022/12/01 00:16:22;;;;;;;22.40;11.68;;;;;;;7.89;100.00;101840.66;4909863;29;20048;-47
2022/12/01 00:18:50;;;;;;;18.90;12.45;;;;;;;7.90;100.00;101849.75;4908650;29;20044;-49
2022/12/01 00:21:19;;;;;;;20.27;11.48;;;;;;;7.90;100.00;101853.34;4910863;29;20056;-45
2022/12/01 00:23:47;;;;;;;24.20;12.32;;;;;;;7.93;100.00;101847.22;4905405;29;20479;-45
2022/12/01 00:26:16;;;;;;;19.50;12.95;;;;;;;7.96;100.00;101852.13;4896014;29;20463;-46
2022/12/01 00:28:42;;;;;;;28.40;12.82;;;;;;;8.02;100.00;101857.56;4910373;29;20052;-44
2022/12/01 00:31:11;;;;;;;20.13;12.70;;;;;;;8.03;100.00;101845.41;4910455;29;20071;-49
2022/12/01 00:33:38;;;;;;;22.73;13.65;;;;;;;8.06;100.00;101853.06;4910436;29;20044;-45
2022/12/01 00:36:06;;;;;;;22.42;14.00;;;;;;;8.07;100.00;101851.97;4910059;29;20083;-45
2022/12/01 00:38:33;;;;;;;25.20;12.50;;;;;;;8.12;100.00;101857.38;4909966;29;20055;-45
2022/12/01 00:41:00;;;;;;;20.95;11.20;;;;;;;8.16;100.00;101866.69;4908417;29;20079;-45
2022/12/01 00:43:26;;;;;;;20.23;10.98;;;;;;;8.19;100.00;101853.13;4910656;29;20135;-47
2022/12/01 00:45:55;;;;;;;24.35;11.02;;;;;;;8.22;100.00;101848.94;4910544;29;20059;-45
2022/12/01 00:48:22;;;;;;;23.42;11.43;;;;;;;8.23;100.00;101856.09;4909156;29;20105;-44
2022/12/01 00:50:53;;;;;;;19.38;11.63;;;;;;;8.23;100.00;101850.59;4912418;29;20056;-46
2022/12/01 00:53:20;;;;;;;20.80;11.73;;;;;;;8.22;100.00;101852.53;4913504;29;20687;-48
2022/12/01 00:55:46;;;;;;;20.63;10.13;;;;;;;8.21;100.00;101870.19;4914064;29;20048;-47
2022/12/01 00:58:13;;;;;;;19.13;11.07;;;;;;;8.21;100.00;101858.31;4910936;29;20487;-45
2022/12/01 01:00:41;;;;;;;15.50;10.05;;;;;;;8.23;100.00;101867.13;4913008;29;20051;-48
2022/12/01 01:03:09;;;;;;;17.33;10.13;;;;;;;8.25;100.00;101860.19;4913821;29;20040;-46
2022/12/01 01:05:41;;;;;;;22.15;9.50;;;;;;;8.26;100.00;101878.38;4913873;29;20115;-53
2022/12/01 01:08:10;;;;;;;25.73;13.32;;;;;;;8.28;100.00;101878.94;4913181;29;20054;-45
2022/12/01 01:10:43;;;;;;;22.60;10.48;;;;;;;8.31;100.00;101883.03;4905574;29;20063;-44
2022/12/01 01:13:11;;;;;;;16.10;10.30;;;;;;;8.34;100.00;101885.19;4912502;29;20486;-45
2022/12/01 01:15:38;;;;;;;16.42;9.73;;;;;;;8.35;100.00;101892.31;4911461;29;20060;-44
2022/12/01 01:18:05;;;;;;;17.63;9.65;;;;;;;8.37;100.00;101892.84;4903679;29;20052;-48
2022/12/01 01:20:32;;;;;;;14.75;8.88;;;;;;;8.39;100.00;101887.84;4913396;29;20522;-48
2022/12/01 01:22:59;;;;;;;15.18;8.10;;;;;;;8.42;100.00;101887.22;4913095;29;20555;-46
2022/12/01 01:25:26;;;;;;;16.98;8.20;;;;;;;8.43;100.00;101883.34;4913467;29;20058;-46
2022/12/01 01:27:53;;;;;;;12.98;7.95;;;;;;;8.44;100.00;101885.81;4912766;29;20048;-48
2022/12/01 01:30:20;;;;;;;14.35;7.55;;;;;;;8.46;100.00;101888.28;4912311;29;20104;-44
2022/12/01 01:32:47;;;;;;;14.57;7.65;;;;;;;8.49;100.00;101893.19;4911018;29;20044;-48
2022/12/01 01:35:13;;;;;;;11.10;6.63;;;;;;;8.49;100.00;101896.78;4913381;29;20040;-45
2022/12/01 01:37:40;;;;;;;12.02;6.28;;;;;;;8.51;100.00;101902.81;4911006;29;20064;-45
2022/12/01 01:40:07;;;;;;;14.38;6.13;;;;;;;8.51;100.00;101904.75;4913241;29;20044;-47
2022/12/01 01:42:34;;;;;;;15.23;5.88;;;;;;;8.53;100.00;101905.25;4912997;29;20055;-48
2022/12/01 01:45:01;;;;;;;13.63;5.97;;;;;;;8.52;100.00;101903.63;4910406;29;20044;-47
2022/12/01 01:47:35;;;;;;;8.48;5.13;;;;;;;8.53;100.00;101897.78;4906254;29;20127;-46
2022/12/01 01:50:08;;;;;;;12.23;5.10;;;;;;;8.54;100.00;101904.13;4910955;29;20051;-49
2022/12/01 01:52:43;;;;;;;12.95;6.78;;;;;;;8.55;100.00;101908.53;4908392;29;20176;-48
2022/12/01 01:55:11;;;;;;;9.18;4.78;;;;;;;8.57;100.00;101900.78;4907572;29;20063;-45
2022/12/01 01:57:39;;;;;;;13.10;5.30;;;;;;;8.57;100.00;101907.13;4910299;29;20040;-45
2022/12/01 02:00:11;;;;;;;9.35;5.15;;;;;;;8.57;100.00;101901.59;4911040;29;20052;-47
2022/12/01 02:02:43;;;;;;;6.57;4.10;;;;;;;8.59;100.00;101901.28;4906000;29;20056;-47
2022/12/01 02:05:32;;;;;;;10.10;4.45;;;;;;;8.61;100.00;101895.44;4910644;29;20131;-46
2022/12/01 02:08:00;;;;;;;9.73;4.22;;;;;;;8.60;100.00;101899.34;4908701;29;20507;-49
2022/12/01 02:10:52;;;;;;;10.02;4.28;;;;;;;8.60;100.00;101893.81;4912376;29;20052;-48
2022/12/01 02:13:47;;;;;;;5.43;3.53;;;;;;;8.60;100.00;101896.59;4910482;29;20052;-45
2022/12/01 02:16:39;;;;;;;12.95;5.07;;;;;;;8.58;100.00;101886.66;4904054;29;20054;-46
2022/12/01 02:19:23;;;;;;;8.93;3.45;;;;;;;8.57;100.00;101889.72;4912610;29;20052;-44
2022/12/01 02:22:21;;;;;;;9.30;3.05;;;;;;;8.54;100.00;101880.13;4912741;29;20071;-46
2022/12/01 02:24:59;;;;;;;2.70;1.70;;;;;;;8.55;100.00;101891.97;4910977;29;20059;-49
2022/12/01 02:27:41;;;;;;;5.80;1.42;;;;;;;8.56;100.00;101890.84;4912715;29;20052;-45
2022/12/01 02:30:18;;;;;;;13.20;2.20;;;;;;;8.57;100.00;101878.69;4912545;29;20136;-44
2022/12/01 02:32:53;;;;;;;21.10;3.20;;;;;;;8.58;100.00;101891.34;4919408;29;20052;-45
2022/12/01 02:35:23;;;;;;;4.18;1.70;;;;;;;8.60;100.00;101894.66;4912192;29;20059;-47
2022/12/01 02:38:13;;;;;;;6.00;2.38;;;;;;;8.61;100.00;101900.97;4912526;29;20067;-45
2022/12/01 02:40:56;;;;;;;6.70;3.30;;;;;;;8.61;100.00;101901.78;4905754;29;20055;-45
2022/12/01 02:43:38;;;;;;;10.15;3.97;;;;;;;8.63;100.00;101909.78;4902413;29;20048;-46
2022/12/01 02:46:14;;;;;;;9.00;4.38;;;;;;;8.65;100.00;101907.53;4925390;29;20116;-45
2022/12/01 02:48:43;;;;;;;10.40;6.40;;;;;;;8.65;100.00;101907.53;4912308;29;20072;-45
2022/12/01 02:51:32;;;;;;;8.02;5.35;;;;;;;8.67;100.00;101905.28;4910824;29;20052;-45
2022/12/01 02:54:02;;;;;;;10.95;5.03;;;;;;;8.64;100.00;101901.19;4911998;29;20123;-45
2022/12/01 02:56:28;;;;;;;13.70;6.68;;;;;;;8.66;100.00;101912.72;4892295;29;20080;-45
2022/12/01 02:58:55;;;;;;;14.95;7.82;;;;;;;8.66;100.00;101909.97;4905520;29;20062;-45
2022/12/01 03:01:49;;;;;;;13.18;7.93;;;;;;;8.67;100.00;101911.63;4985465;23;20063;-46
2022/12/01 03:04:40;;;;;;;15.65;9.45;;;;;;;8.65;100.00;101913.88;4949918;29;20065;-44
2022/12/01 03:07:11;;;;;;;16.90;9.95;;;;;;;8.64;100.00;101906.72;4949635;29;20073;-50
2022/12/01 03:10:07;;;;;;;16.25;9.80;;;;;;;8.66;100.00;101915.50;4946267;28;20106;-51
2022/12/01 03:12:37;;;;;;;19.58;11.45;;;;;;;8.64;100.00;101912.22;4948568;28;20063;-47
2022/12/01 03:15:17;;;;;;;17.70;9.23;;;;;;;8.63;100.00;101915.31;4922542;29;20058;-48
2022/12/01 03:18:03;;;;;;;21.70;10.20;;;;;;;8.61;100.00;101918.34;4949840;29;20051;-46
2022/12/01 03:20:51;;;;;;;17.65;9.73;;;;;;;8.59;100.00;101917.84;4946528;28;20059;-44
2022/12/01 03:23:22;;;;;;;17.83;9.82;;;;;;;8.58;100.00;101908.75;4949484;29;20050;-44
2022/12/01 03:25:51;;;;;;;20.40;11.93;;;;;;;8.58;100.00;101903.22;4948804;28;20079;-45
2022/12/01 03:28:27;;;;;;;14.43;9.48;;;;;;;8.57;100.00;101911.81;4949671;29;20425;-45
2022/12/01 03:30:58;;;;;;;18.23;10.57;;;;;;;8.55;100.00;101914.06;4943258;29;20150;-46
2022/12/01 03:33:34;;;;;;;15.15;10.80;;;;;;;8.53;100.00;101921.81;4946800;28;20118;-51
2022/12/01 03:36:04;;;;;;;19.67;11.82;;;;;;;8.51;100.00;101913.84;4948127;29;20043;-47
2022/12/01 03:38:35;;;;;;;17.92;11.48;;;;;;;8.50;100.00;101914.94;4948670;29;20070;-50
2022/12/01 03:41:09;;;;;;;30.63;14.52;;;;;;;8.49;100.00;101916.09;4949194;29;20559;-47
2022/12/01 03:43:41;;;;;;;23.67;14.02;;;;;;;8.49;100.00;101909.75;4932218;29;20047;-47
2022/12/01 03:46:11;;;;;;;;;;;;;;;8.48;100.00;101919.13;4949183;29;20071;-48
2022/12/01 03:48:39;;;;;;;23.63;14.68;;;;;;;8.47;100.00;101914.75;4947676;29;19927;-46
2022/12/01 03:51:17;;;;;;;22.73;14.32;;;;;;;8.46;100.00;101922.22;4949077;29;20110;-47
2022/12/01 03:53:54;;;;;;;22.52;12.38;;;;;;;8.46;100.00;101916.69;4949262;29;20054;-46
2022/12/01 03:56:25;;;;;;;31.02;13.35;;;;;;;8.45;100.00;101915.03;4948281;28;20144;-46
2022/12/01 03:58:56;;;;;;;20.77;12.97;;;;;;;8.46;100.00;101929.66;4948996;29;20452;-46
2022/12/01 04:01:25;;;;;;;23.30;12.25;;;;;;;8.46;100.00;101921.38;4947400;29;20577;-45
2022/12/01 04:03:52;;;;;;;23.98;11.65;;;;;;;8.43;100.00;101925.56;4949009;29;20066;-45
2022/12/01 04:06:18;;;;;;;19.80;11.52;;;;;;;8.44;100.00;101932.75;4947476;29;20051;-47
2022/12/01 04:08:45;;;;;;;22.13;10.77;;;;;;;8.43;100.00;101927.50;4948663;29;20067;-47
2022/12/01 04:13:59;;;;;;;22.40;10.57;;;;;;;8.42;100.00;101932.19;4949029;29;20043;-45
2022/12/01 04:16:26;;;;;;;20.33;11.27;;;;;;;8.42;100.00;101928.63;4947809;29;20047;-44
2022/12/01 04:18:53;;;;;;;16.75;11.02;;;;;;;8.42;100.00;101921.16;4948973;29;20083;-46
2022/12/01 04:21:19;;;;;;;17.42;11.48;;;;;;;8.42;100.00;101931.38;4947948;29;20051;-48
2022/12/01 04:24:01;;;;;;;20.48;10.82;;;;;;;8.41;100.00;101930.59;4949264;29;20043;-44
2022/12/01 04:26:31;;;;;;;18.20;10.95;;;;;;;8.43;100.00;101930.28;4954066;28;20051;-48
2022/12/01 04:29:02;;;;;;;19.67;10.93;;;;;;;8.43;100.00;101922.00;4955398;28;20055;-44
2022/12/01 04:31:30;;;;;;;19.48;10.77;;;;;;;8.43;100.00;101922.81;4954478;28;20046;-45
2022/12/01 04:33:57;;;;;;;17.02;8.70;;;;;;;8.44;100.00;101937.44;4955085;28;20062;-46
2022/12/01 04:36:25;;;;;;;11.00;4.75;;;;;;;8.43;100.00;101927.50;4937195;28;20632;-44
2022/12/01 04:38:52;;;;;;;11.30;5.35;;;;;;;8.42;100.00;101921.16;4954621;29;20043;-51
2022/12/01 04:41:19;;;;;;;10.63;3.83;;;;;;;8.44;100.00;101918.13;4955235;28;20119;-45
2022/12/01 04:43:46;;;;;;;6.93;3.30;;;;;;;8.46;100.00;101924.16;4954911;29;20046;-48
2022/12/01 04:46:13;;;;;;;9.40;2.90;;;;;;;8.48;100.00;101921.91;4954784;28;20047;-48
2022/12/01 04:48:40;;;;;;;4.57;2.60;;;;;;;8.50;100.00;101922.41;4955353;28;20400;-45
2022/12/01 04:51:07;;;;;;;2.67;1.35;;;;;;;8.51;100.00;101927.66;4954592;29;20378;-44
2022/12/01 04:53:35;;;;;;;4.55;1.40;;;;;;;8.52;100.00;101920.97;4955157;28;20138;-45
2022/12/01 04:56:02;;;;;;;7.40;1.65;;;;;;;8.52;100.00;101909.16;4949340;29;20069;-45
2022/12/01 04:58:31;;;;;;;5.07;1.15;;;;;;;8.51;100.00;101919.38;4954869;29;20055;-48
2022/12/01 05:01:11;;;;;;;4.00;1.25;;;;;;;8.51;100.00;101915.78;4954307;28;20051;-45
2022/12/01 05:03:39;;;;;;;2.63;1.15;;;;;;;8.48;100.00;101919.13;4954976;28;20055;-45
2022/12/01 05:06:10;;;;;;;3.42;1.00;;;;;;;8.44;99.80;101915.34;4954142;28;20055;-52
2022/12/01 05:08:37;;;;;;;4.47;1.48;;;;;;;8.43;99.73;101914.53;4949829;29;20054;-44
2022/12/01 05:11:06;;;;;;;6.80;2.40;;;;;;;8.41;99.49;101919.53;4954306;28;20059;-46
2022/12/01 05:13:35;;;;;;;1.58;0.80;;;;;;;8.40;99.36;101914.31;4950167;29;20058;-46
2022/12/01 05:16:07;;;;;;;3.42;0.95;;;;;;;8.38;99.38;101917.38;4953203;29;20047;-48
2022/12/01 05:18:34;;;;;;;4.40;1.35;;;;;;;8.37;98.94;101918.50;4942049;28;20122;-48
2022/12/01 05:21:03;;;;;;;8.15;1.20;;;;;;;8.36;98.87;101913.28;4954881;28;20055;-44
2022/12/01 05:23:33;;;;;;;4.22;0.90;;;;;;;8.34;98.70;101916.34;4954264;29;20047;-45
2022/12/01 05:26:00;;;;;;;3.33;1.73;;;;;;;8.33;98.54;101922.16;4953758;28;20567;-46
2022/12/01 05:28:27;;;;;;;4.68;0.82;;;;;;;8.29;98.53;101921.13;4953907;28;20054;-46
2022/12/01 05:30:55;;;;;;;3.90;1.08;;;;;;;8.28;98.26;101931.34;4949401;29;20066;-50
2022/12/01 05:33:23;;;;;;;2.65;1.13;;;;;;;8.28;98.18;101922.25;4954052;29;20058;-47
2022/12/01 05:35:50;;;;;;;1.75;1.15;;;;;;;8.26;98.04;101922.50;4953466;28;20046;-45
2022/12/01 05:38:18;;;;;;;1.80;0.98;;;;;;;8.24;97.69;101924.75;4950511;29;20051;-46
2022/12/01 05:40:53;;;;;;;3.95;0.98;;;;;;;8.20;97.71;101918.22;4951258;29;20138;-47
2022/12/01 05:43:21;;;;;;;5.13;1.48;;;;;;;8.19;97.47;101915.75;4950389;29;20062;-46
2022/12/01 05:45:54;;;;;;;3.40;1.10;;;;;;;8.16;97.47;101916.34;4948903;29;20046;-49
2022/12/01 05:48:21;;;;;;;2.50;0.93;;;;;;;8.13;97.37;101923.28;4942909;29;20105;-48
2022/12/01 05:50:47;;;;;;;4.30;0.90;;;;;;;8.10;97.21;101910.06;4950539;29;20070;-46
2022/12/01 05:53:14;;;;;;;1.25;0.90;;;;;;;8.07;97.10;101915.41;4951178;29;20047;-45
2022/12/01 05:55:41;;;;;;;4.22;1.17;;;;;;;8.06;97.06;101922.03;4951260;29;20047;-49
2022/12/01 05:58:09;;;;;;;2.67;0.88;;;;;;;8.03;97.10;101917.09;4951105;29;20128;-46
2022/12/01 06:00:36;;;;;;;2.58;1.02;;;;;;;8.01;96.91;101916.59;4950019;29;20165;-48
2022/12/01 06:03:11;;;;;;;2.08;1.10;;;;;;;7.96;96.94;101923.00;4947321;29;20039;-50
2022/12/01 06:05:38;;;;;;;3.78;0.82;;;;;;;7.93;96.89;101913.41;4943768;29;20058;-45
2022/12/01 06:08:05;;;;;;;7.35;2.83;;;;;;;7.90;96.77;101914.00;4950708;29;20516;-45
2022/12/01 06:10:31;;;;;;;6.97;2.10;;;;;;;7.85;96.82;101919.59;4950315;29;20545;-47
2022/12/01 06:12:58;;;;;;;4.55;0.80;;;;;;;7.84;96.81;101926.19;4950586;29;20051;-52
2022/12/01 06:15:25;;;;;;;7.43;2.83;;;;;;;7.83;96.83;101930.09;4950937;29;20055;-45
2022/12/01 06:17:52;;;;;;;5.40;1.30;;;;;;;7.82;96.77;101933.97;4949927;29;20541;-45
2022/12/01 06:20:18;;;;;;;2.88;1.55;;;;;;;7.80;96.74;101941.72;4949171;29;20054;-44
2022/12/01 06:22:45;;;;;;;6.32;1.95;;;;;;;7.78;96.67;101935.66;4927163;29;20055;-45
2022/12/01 06:25:12;;;;;;;3.78;1.40;;;;;;;7.76;96.62;101946.16;4933326;29;20116;-47
2022/12/01 06:27:38;;;;;;;7.07;1.10;;;;;;;7.74;96.73;101948.41;4950025;29;20577;-45
2022/12/01 06:30:06;;;;;;;6.40;2.50;;;;;;;7.69;96.60;101955.94;4949453;29;20046;-45
2022/12/01 06:32:32;;;;;;;4.60;1.50;;;;;;;7.61;96.65;101954.66;4950397;29;20058;-47
2022/12/01 06:34:59;;;;;;;4.30;1.23;;;;;;;7.55;96.63;101955.81;4933421;29;20118;-49
2022/12/01 06:37:27;;;;;;;1.73;1.02;;;;;;;7.48;96.79;101946.28;4946897;29;20771;-45
2022/12/01 06:39:54;;;;;;;3.47;1.13;;;;;;;7.46;96.79;101956.78;4945013;29;20050;-45
2022/12/01 06:42:20;;;;;;;9.25;1.55;;;;;;;7.40;96.87;101964.28;4950318;29;20085;-44
2022/12/01 06:44:47;;;;;;;6.00;1.77;;;;;;;7.38;96.87;101961.03;4950430;29;20432;-44
2022/12/01 06:47:14;;;;;;;6.93;1.52;;;;;;;7.35;96.87;101962.44;4949281;28;20043;-49
2022/12/01 06:49:41;;;;;;;5.47;1.58;;;;;;;7.34;97.11;101952.53;4950339;29;20512;-46
2022/12/01 06:52:08;;;;;;;4.30;1.70;;;;;;;7.36;97.09;101957.72;4949496;28;20043;-44
2022/12/01 06:54:36;;;;;;;3.38;1.27;;;;;;;7.41;97.35;101965.13;4945839;29;20698;-45
2022/12/01 06:57:03;;;;;;;9.25;1.98;;;;;;;7.44;97.21;101959.03;4941355;29;20043;-46
2022/12/01 06:59:30;;;;;;;7.95;2.97;;;;;;;7.48;97.19;101971.09;4947705;29;20039;-45
2022/12/01 07:01:57;;;;;;;14.35;2.55;;;;;;;7.50;97.27;101964.16;4947936;29;20058;-45
2022/12/01 07:04:24;;;;;;;3.03;1.33;;;;;;;7.54;97.13;101965.22;4949916;29;20130;-47
2022/12/01 07:06:51;;;;;;;7.22;2.10;;;;;;;7.54;97.19;101970.75;4949843;29;20062;-51
2022/12/01 07:09:17;;;;;;;8.55;1.90;;;;;;;7.54;97.10;101970.75;4949054;29;20489;-46
2022/12/01 07:11:44;;;;;;;7.25;1.80;;;;;;;7.57;97.23;101972.09;4944680;29;20052;-46
2022/12/01 07:14:31;;;;;;;7.18;1.88;;;;;;;7.60;97.16;101963.22;4942751;29;20529;-47
2022/12/01 07:16:58;;;;;;;6.18;2.60;;;;;;;7.61;97.20;101965.69;4949839;29;20130;-45
2022/12/01 07:19:25;;;;;;;6.97;2.10;;;;;;;7.63;97.29;101966.19;4931828;29;20061;-47
2022/12/01 07:21:51;;;;;;;8.20;2.00;;;;;;;7.66;97.18;101959.28;4948806;29;20066;-45
2022/12/01 07:24:18;;;;;;;5.20;1.77;;;;;;;7.64;97.16;101959.59;4949247;29;20563;-44
2022/12/01 07:26:45;;;;;;;15.35;3.05;;;;;;;7.65;97.27;101966.72;4949460;29;20548;-45
2022/12/01 07:29:11;;;;;;;5.47;2.70;;;;;;;7.66;97.37;101960.09;4939493;29;20059;-50
2022/12/01 07:31:38;;;;;;;8.00;2.30;;;;;;;7.67;97.47;101967.25;4949154;29;20063;-49
2022/12/01 07:34:05;;;;;;;8.35;2.72;;;;;;;7.69;97.40;101962.25;4949417;29;20051;-47
2022/12/01 07:36:32;;;;;;;8.68;1.90;;;;;;;7.68;97.52;101954.28;4949240;29;20066;-46
2022/12/01 07:39:02;;;;;;;3.83;2.17;;;;;;;7.70;97.52;101961.16;4931825;29;20513;-48
2022/12/01 07:41:29;;;;;;;5.53;1.80;;;;;;;7.70;97.53;101960.34;4947431;29;20817;-45
2022/12/01 07:43:57;;;;;;;7.65;1.95;;;;;;;7.68;97.55;101966.13;4949451;29;20122;-45
2022/12/01 07:46:25;;;;;;;6.38;2.08;;;;;;;7.68;97.68;101957.84;4946429;29;20066;-45
2022/12/01 07:48:54;;;;;;;5.75;1.75;;;;;;;7.69;97.69;101962.25;4948174;29;20129;-47
2022/12/01 07:51:23;;;;;;;5.35;1.80;;;;;;;7.70;97.83;101960.34;4947250;29;20062;-46
2022/12/01 07:53:51;;;;;;;9.13;2.13;;;;;;;7.69;97.76;101956.75;4949438;29;20055;-45
2022/12/01 07:56:19;;;;;;;4.78;1.98;;;;;;;7.64;97.73;101965.09;4931155;29;20636;-47
2022/12/01 07:58:46;;;;;;;5.43;2.95;;;;;;;7.62;97.85;101964.56;4948603;29;20057;-45
2022/12/01 08:01:16;;;;;;;6.32;2.70;;;;;;;7.60;98.03;101972.28;4947869;29;20088;-49
2022/12/01 08:03:43;;;;;;;7.50;2.08;;;;;;;7.62;98.14;101972.03;4946457;29;20070;-49
2022/12/01 08:06:10;;;;;;;6.72;3.05;;;;;;;7.62;98.18;101972.84;4948811;29;20098;-45
2022/12/01 08:08:39;;;;;;;5.90;2.85;;;;;;;7.61;98.05;101976.69;4948347;29;20070;-46
2022/12/01 08:11:19;;;;;;;5.97;2.70;;;;;;;7.63;98.40;101982.72;4945432;29;20039;-45
2022/12/01 08:13:46;;;;;;;6.00;3.20;;;;;;;7.65;98.28;101987.97;4942367;29;20687;-46
2022/12/01 08:16:15;;;;;;;5.40;2.90;;;;;;;7.67;98.23;101989.31;4942005;29;20517;-44
2022/12/01 08:18:42;;;;;;;6.95;3.15;;;;;;;7.67;98.38;101996.75;4945971;29;20053;-46
2022/12/01 08:21:14;;;;;;;12.45;3.45;;;;;;;7.69;98.38;101995.34;4946742;29;20079;-47
2022/12/01 08:23:42;;;;;;;6.80;3.25;;;;;;;7.70;98.48;101994.25;4948079;29;20047;-50
2022/12/01 08:26:17;;;;;;;4.43;2.83;;;;;;;7.72;98.30;102000.25;4948383;29;20062;-46
2022/12/01 08:28:45;;;;;;;7.63;3.78;;;;;;;7.73;98.40;101993.63;4948385;29;20039;-47
2022/12/01 08:31:15;;;;;;;7.97;5.18;;;;;;;7.75;98.56;101988.66;4947850;29;20051;-47
2022/12/01 08:33:42;;;;;;;7.57;4.22;;;;;;;7.78;98.44;102004.56;4947880;29;20078;-50
2022/12/01 08:36:09;;;;;;;13.25;4.18;;;;;;;7.79;98.62;102002.66;4948017;29;20047;-48
2022/12/01 08:38:35;;;;;;;10.55;5.10;;;;;;;7.81;98.48;102004.00;4948026;29;20110;-45
2022/12/01 08:41:08;;;;;;;10.48;4.60;;;;;;;7.83;98.70;102000.94;4947071;29;20074;-45
2022/12/01 08:43:38;;;;;;;14.35;5.28;;;;;;;7.84;98.64;101997.88;4935233;29;20575;-47
2022/12/01 08:46:27;;;;;;;10.45;4.70;;;;;;;7.87;98.55;101993.72;4946843;29;20059;-45
2022/12/01 08:48:56;;;;;;;12.13;5.53;;;;;;;7.89;98.88;101995.06;4947761;29;20524;-45
2022/12/01 08:51:23;;;;;;;12.80;6.07;;;;;;;7.93;98.75;101989.78;4948431;29;20205;-45
2022/12/01 08:53:51;;;;;;;10.43;4.68;;;;;;;7.96;98.81;101994.69;4947762;29;20151;-45
2022/12/01 08:56:24;;;;;;;11.50;5.63;;;;;;;7.99;98.84;101997.66;4948272;29;20039;-46
2022/12/01 08:58:50;;;;;;;14.68;5.88;;;;;;;8.02;98.87;101999.03;4948999;29;20052;-48
2022/12/01 09:01:18;;;;;;;11.00;6.15;;;;;;;8.07;98.85;101998.13;4948174;29;20051;-46
2022/12/01 09:03:45;;;;;;;14.25;6.22;;;;;;;8.09;98.90;102001.41;4944032;29;20094;-52
2022/12/01 09:06:15;;;;;;;11.18;5.80;;;;;;;8.12;98.88;102003.56;4946945;29;20058;-49
2022/12/01 09:08:42;;;;;;;16.55;6.10;;;;;;;8.16;98.89;101993.56;4948501;29;20054;-45
2022/12/01 09:11:14;;;;;;;11.10;6.50;;;;;;;8.20;98.89;101997.38;4930951;29;20051;-46
2022/12/01 09:13:42;;;;;;;11.10;5.72;;;;;;;8.24;98.81;102002.00;4951210;29;20054;-45
2022/12/01 09:16:11;;;;;;;12.05;6.88;;;;;;;8.29;98.98;101995.59;4951968;29;20070;-47
2022/12/01 09:18:39;;;;;;;16.27;6.05;;;;;;;8.34;98.93;101992.81;4952148;29;20071;-44
2022/12/01 09:21:16;;;;;;;11.00;6.10;;;;;;;8.37;99.18;101994.94;4951950;29;20151;-45
2022/12/01 09:23:43;;;;;;;9.95;6.55;;;;;;;8.42;98.83;101994.84;4945224;29;20054;-48
2022/12/01 09:26:11;;;;;;;12.63;7.05;;;;;;;8.47;98.93;102001.09;4951007;29;20485;-47
2022/12/01 09:28:39;;;;;;;12.88;6.75;;;;;;;8.50;99.10;101989.47;4951551;29;20465;-48
2022/12/01 09:31:09;;;;;;;15.95;5.38;;;;;;;8.56;99.05;101995.72;4951651;29;20058;-48
2022/12/01 09:33:36;;;;;;;14.20;6.20;;;;;;;8.61;98.94;101998.41;4950068;29;20051;-46
2022/12/01 09:36:05;;;;;;;14.50;5.70;;;;;;;8.66;99.00;101998.31;4950461;29;20147;-46
2022/12/01 09:38:33;;;;;;;11.63;4.80;;;;;;;8.71;98.90;102001.00;4951132;29;20035;-45
2022/12/01 09:41:04;;;;;;;9.20;4.20;;;;;;;8.76;98.73;101997.34;4950876;29;20047;-51
2022/12/01 09:43:57;;;;;;;22.45;6.53;;;;;;;8.80;98.65;102004.72;4951533;29;20043;-45
2022/12/01 09:46:31;;;;;;;15.60;4.85;;;;;;;8.84;98.58;102016.78;4942127;29;20043;-47
2022/12/01 09:49:01;;;;;;;10.20;4.63;;;;;;;8.88;98.59;102017.81;4951477;29;20055;-47
2022/12/01 09:51:29;;;;;;;10.27;4.97;;;;;;;8.92;98.35;102018.84;4951551;29;20662;-47
2022/12/01 09:53:59;;;;;;;14.48;4.93;;;;;;;8.98;98.35;102020.41;4933517;29;20088;-48
2022/12/01 09:56:29;;;;;;;11.82;3.97;;;;;;;9.01;98.27;102028.09;4943016;29;20058;-46
2022/12/01 09:59:01;;;;;;;18.00;5.53;;;;;;;9.06;98.17;102030.75;4951238;29;20559;-45
2022/12/01 10:01:40;;;;;;;15.75;5.05;;;;;;;9.10;98.14;102026.28;4950993;29;20440;-45
2022/12/01 10:04:13;;;;;;;12.15;4.57;;;;;;;9.14;98.12;102032.00;4950545;29;20055;-51
2022/12/01 10:06:48;;;;;;;12.05;5.30;;;;;;;9.17;98.13;102029.44;4950516;29;20070;-46
2022/12/01 10:09:28;;;;;;;6.40;3.47;;;;;;;9.22;97.90;102033.22;4950397;29;20059;-47
2022/12/01 10:12:13;;;;;;;10.88;4.97;;;;;;;9.27;97.96;102024.84;4939790;29;20353;-50
2022/12/01 10:14:40;;;;;;;27.83;8.80;;;;;;;9.31;97.86;102025.88;4933608;29;20051;-47
2022/12/01 10:17:26;;;;;;;18.38;6.13;;;;;;;9.34;97.69;102022.50;4951020;29;20117;-45
2022/12/01 10:20:01;;;;;;;12.50;5.07;;;;;;;9.37;97.59;102030.19;4949892;29;20062;-45
2022/12/01 10:23:07;;;;;;;18.42;7.72;;;;;;;9.40;97.49;102024.84;4949223;28;20142;-46
2022/12/01 10:25:52;;;;;;;14.00;5.28;;;;;;;9.43;97.54;102020.66;4934288;29;20059;-48
2022/12/01 10:28:22;;;;;;;15.27;5.13;;;;;;;9.46;97.42;102018.09;4950815;29;20370;-45
2022/12/01 10:30:50;;;;;;;13.73;5.13;;;;;;;9.51;97.31;102008.88;4950942;29;20627;-45
2022/12/01 10:33:32;;;;;;;14.73;4.82;;;;;;;9.55;97.13;102013.53;4949636;29;20071;-46
2022/12/01 10:35:58;;;;;;;12.43;5.23;;;;;;;9.58;97.12;102004.59;4949824;29;20074;-48
2022/12/01 10:38:30;;;;;;;11.07;4.78;;;;;;;9.62;96.99;102007.56;4950221;29;20541;-45
2022/12/01 10:41:00;;;;;;;11.82;4.10;;;;;;;9.65;96.71;102004.19;4950808;29;20126;-48
2022/12/01 10:43:43;;;;;;;8.75;4.05;;;;;;;9.69;96.65;101999.66;4950167;29;20256;-47
2022/12/01 10:46:23;;;;;;;14.05;5.53;;;;;;;9.71;96.39;102001.00;4950311;29;20047;-45
2022/12/01 10:49:06;;;;;;;18.95;5.15;;;;;;;9.73;96.01;102003.47;4944873;29;20050;-49
2022/12/01 10:51:55;;;;;;;12.20;4.75;;;;;;;9.76;95.69;102000.09;4939060;29;20055;-45
2022/12/01 10:54:30;;;;;;;10.90;4.68;;;;;;;9.78;95.42;101998.63;4949483;29;20062;-45
2022/12/01 10:56:58;;;;;;;15.73;5.53;;;;;;;9.80;95.20;101992.78;4949272;29;20055;-48
2022/12/01 11:00:03;;;;;;;15.05;5.75;;;;;;;9.85;94.95;101998.22;4950218;29;20039;-45
2022/12/01 11:02:31;;;;;;;15.93;7.10;;;;;;;9.85;94.96;102003.75;4929297;29;20062;-47
2022/12/01 11:05:06;;;;;;;18.52;7.22;;;;;;;9.88;94.65;101985.69;4932484;29;20546;-50
2022/12/01 11:07:45;;;;;;;19.23;7.07;;;;;;;9.90;94.64;101995.31;4949115;29;20039;-45
2022/12/01 11:10:23;;;;;;;17.90;7.30;;;;;;;9.91;94.50;101985.91;4938732;29;20051;-45
2022/12/01 11:12:58;;;;;;;20.45;7.43;;;;;;;9.93;94.38;101994.72;4950010;29;20122;-48
2022/12/01 11:15:29;;;;;;;12.98;6.90;;;;;;;9.98;94.34;101979.97;4949897;29;20055;-45
2022/12/01 11:18:42;;;;;;;17.00;8.83;;;;;;;10.03;94.41;101983.44;4949288;29;20118;-50
2022/12/01 11:21:26;;;;;;;20.73;7.10;;;;;;;10.06;94.22;101974.50;4947610;29;20298;-54
2022/12/01 11:23:54;;;;;;;25.17;9.73;;;;;;;10.11;93.98;101979.91;4951100;29;20130;-45
2022/12/01 11:26:31;;;;;;;17.02;7.35;;;;;;;10.14;93.79;101986.81;4948773;29;20043;-47
2022/12/01 11:29:01;;;;;;;24.85;7.57;;;;;;;10.16;93.96;101977.06;4949305;29;20063;-47
2022/12/01 11:31:47;;;;;;;16.02;8.15;;;;;;;10.21;93.87;101978.91;4949746;29;20449;-49
2022/12/01 11:34:24;;;;;;;17.13;8.00;;;;;;;10.22;93.59;101969.44;4949117;28;20051;-45
2022/12/01 11:37:03;;;;;;;22.33;8.70;;;;;;;10.26;93.74;101976.00;4947636;29;20055;-46
2022/12/01 11:39:32;;;;;;;19.10;5.93;;;;;;;10.26;93.47;101960.22;4948126;29;20498;-45
2022/12/01 11:42:06;;;;;;;27.65;8.90;;;;;;;10.30;93.32;101964.00;4949378;29;20051;-46
2022/12/01 11:44:33;;;;;;;17.77;7.18;;;;;;;10.32;93.08;101970.06;4949564;29;20039;-45
2022/12/01 11:47:20;;;;;;;12.35;6.00;;;;;;;10.36;93.07;101959.97;4949132;29;20475;-47
2022/12/01 11:49:58;;;;;;;19.23;7.07;;;;;;;10.40;92.74;101962.94;4949813;29;20742;-47